Time;durP1;ratioP1;P1;durP2;ratioP2;P2;SDS_P1;SDS_P2;PMS_P1;PMS_P2;Temp;Humidity;BMP_temperature;BMP_pressure;BME280_temperature;BME280_humidity;BME280_pressure;Samples;Min_cycle;Max_cycle;Signal;HPM_P1;HPM_P2
2021/09/08 00:01:35;;;;;;;7.57;5.28;;;;;;;25.91;35.08;101586.25;5011352;28;20107;-77
2021/09/08 00:04:02;;;;;;;8.20;5.43;;;;;;;25.86;34.74;101586.78;5009722;28;20512;-77
2021/09/08 00:06:32;;;;;;;8.85;5.78;;;;;;;25.87;35.09;101580.16;5011041;28;20108;-76
2021/09/08 00:09:01;;;;;;;9.27;5.75;;;;;;;25.85;35.55;101582.28;5009212;28;20074;-77
2021/09/08 00:11:28;;;;;;;8.05;5.75;;;;;;;25.79;35.10;101577.44;5011003;28;20053;-77
2021/09/08 00:13:55;;;;;;;8.52;5.95;;;;;;;25.76;35.35;101580.63;5010379;28;20551;-77
2021/09/08 00:16:24;;;;;;;9.48;6.18;;;;;;;25.76;35.82;101573.13;5010420;28;20378;-77
2021/09/08 00:18:51;;;;;;;8.38;5.47;;;;;;;25.69;35.52;101572.16;4997757;28;20148;-77
2021/09/08 00:21:18;;;;;;;10.13;5.97;;;;;;;25.67;35.62;101573.38;5014588;28;20523;-77
2021/09/08 00:23:46;;;;;;;9.18;6.13;;;;;;;25.66;35.88;101574.41;5010278;28;20469;-77
2021/09/08 00:26:12;;;;;;;9.23;5.78;;;;;;;25.61;35.52;101571.34;5005947;28;20081;-77
2021/09/08 00:28:39;;;;;;;8.38;5.68;;;;;;;25.59;35.55;101573.41;4991640;28;20076;-77
2021/09/08 00:31:05;;;;;;;9.48;5.88;;;;;;;25.57;35.59;101567.13;5015637;28;20447;-77
2021/09/08 00:33:32;;;;;;;9.90;6.25;;;;;;;25.55;35.87;101561.75;5000416;28;20054;-77
2021/09/08 00:35:59;;;;;;;9.23;6.10;;;;;;;25.53;35.94;101558.28;5014847;28;20042;-76
2021/09/08 00:38:25;;;;;;;8.48;5.72;;;;;;;25.51;35.64;101553.97;5007122;28;20551;-77
2021/09/08 00:40:56;;;;;;;8.85;6.10;;;;;;;25.51;36.05;101556.75;5004223;28;20085;-77
2021/09/08 00:43:23;;;;;;;9.80;5.97;;;;;;;25.45;35.69;101552.75;5005574;28;20053;-77
2021/09/08 00:45:54;;;;;;;9.45;6.65;;;;;;;25.44;36.01;101553.84;5009690;28;20106;-77
2021/09/08 00:48:21;;;;;;;8.75;5.82;;;;;;;25.37;36.02;101547.25;5006828;28;20050;-77
2021/09/08 00:50:49;;;;;;;9.40;6.70;;;;;;;25.33;35.94;101546.75;4992506;28;20108;-77
2021/09/08 00:53:17;;;;;;;10.18;6.50;;;;;;;25.29;35.94;101548.16;4998781;28;20057;-77
2021/09/08 00:55:45;;;;;;;8.65;5.63;;;;;;;25.26;36.27;101548.53;5003610;28;20135;-77
2021/09/08 00:58:12;;;;;;;8.70;5.97;;;;;;;25.24;35.92;101552.53;5008893;28;20504;-76
2021/09/08 01:00:42;;;;;;;8.82;5.63;;;;;;;25.24;35.74;101545.06;5005187;28;20050;-77
2021/09/08 01:03:09;;;;;;;8.55;5.40;;;;;;;25.19;36.35;101544.75;5009324;28;20460;-77
2021/09/08 01:05:36;;;;;;;9.35;5.88;;;;;;;25.17;36.36;101534.88;5010424;28;20085;-77
2021/09/08 01:08:07;;;;;;;7.97;5.28;;;;;;;25.17;36.35;101541.28;5007211;28;20087;-77
2021/09/08 01:10:33;;;;;;;10.00;5.63;;;;;;;25.11;36.21;101530.91;5002138;28;20090;-77
2021/09/08 01:13:00;;;;;;;9.00;5.65;;;;;;;25.07;36.77;101528.66;5006288;28;20092;-77
2021/09/08 01:15:30;;;;;;;8.05;5.35;;;;;;;25.07;36.26;101532.28;4997174;28;20053;-77
2021/09/08 01:17:59;;;;;;;8.70;5.75;;;;;;;25.02;36.48;101531.97;5009348;28;20587;-77
2021/09/08 01:20:26;;;;;;;8.20;5.25;;;;;;;24.95;36.78;101536.53;5019158;28;20046;-77
2021/09/08 01:22:53;;;;;;;8.48;5.88;;;;;;;24.93;36.49;101536.72;5010696;28;20168;-77
2021/09/08 01:25:26;;;;;;;8.15;5.40;;;;;;;24.93;37.28;101530.28;5004195;28;20054;-77
2021/09/08 01:27:54;;;;;;;9.60;5.97;;;;;;;24.87;36.83;101534.59;5009920;28;20073;-77
2021/09/08 01:30:24;;;;;;;8.38;5.72;;;;;;;24.86;36.44;101529.25;5011282;28;20086;-77
2021/09/08 01:32:51;;;;;;;9.05;5.72;;;;;;;24.83;36.48;101530.44;5010686;28;20144;-77
2021/09/08 01:35:19;;;;;;;8.48;5.57;;;;;;;24.84;36.63;101528.53;5010270;28;20088;-77
2021/09/08 01:37:47;;;;;;;9.23;5.75;;;;;;;24.83;36.81;101526.81;5005690;28;20053;-77
2021/09/08 01:40:16;;;;;;;9.05;5.70;;;;;;;24.82;36.22;101527.84;5005505;28;20050;-77
2021/09/08 01:42:43;;;;;;;7.75;5.68;;;;;;;24.82;36.28;101533.41;5025991;28;20061;-77
2021/09/08 01:45:15;;;;;;;7.97;5.63;;;;;;;24.84;36.84;101528.53;5014945;28;20085;-77
2021/09/08 01:47:41;;;;;;;7.60;5.47;;;;;;;24.78;36.19;101530.13;4996433;28;20090;-77
2021/09/08 01:50:09;;;;;;;8.07;5.80;;;;;;;24.81;36.21;101526.13;5002262;28;20149;-77
2021/09/08 01:52:39;;;;;;;8.18;5.47;;;;;;;24.81;36.54;101528.88;5013825;28;20120;-77
2021/09/08 01:55:07;;;;;;;7.53;4.95;;;;;;;24.80;36.17;101524.38;5014646;28;20057;-77
2021/09/08 01:57:36;;;;;;;8.32;5.53;;;;;;;24.80;36.61;101524.38;5016322;28;20054;-77
2021/09/08 02:00:05;;;;;;;8.45;5.57;;;;;;;24.80;36.40;101519.69;5013389;28;20084;-77
2021/09/08 02:02:31;;;;;;;8.98;5.90;;;;;;;24.78;36.33;101521.81;5014764;28;20062;-77
2021/09/08 02:04:58;;;;;;;8.40;5.60;;;;;;;24.77;36.77;101514.50;5014995;28;20065;-77
2021/09/08 02:07:25;;;;;;;8.85;6.03;;;;;;;24.76;36.96;101520.25;5010989;28;20084;-77
2021/09/08 02:09:52;;;;;;;8.05;5.80;;;;;;;24.74;36.54;101514.00;5015174;28;20049;-77
2021/09/08 02:12:19;;;;;;;8.40;6.03;;;;;;;24.70;37.13;101510.72;5007489;28;20073;-77
2021/09/08 02:14:46;;;;;;;9.27;6.05;;;;;;;24.65;36.78;101500.13;5019467;28;20045;-76
2021/09/08 02:17:13;;;;;;;7.68;5.50;;;;;;;24.61;36.57;101492.34;5019074;28;20116;-77
2021/09/08 02:19:40;;;;;;;8.90;5.60;;;;;;;24.59;36.95;101494.44;5015030;28;20046;-77
2021/09/08 02:22:06;;;;;;;8.82;6.25;;;;;;;24.56;36.98;101498.41;5012731;28;20049;-77
2021/09/08 02:24:33;;;;;;;8.50;5.25;;;;;;;24.54;37.16;101500.50;5010983;28;20110;-77
2021/09/08 02:26:59;;;;;;;7.85;5.40;;;;;;;24.53;36.88;101492.38;5019190;28;20092;-77
2021/09/08 02:29:26;;;;;;;7.85;5.47;;;;;;;24.50;37.33;101496.38;5010016;28;20077;-77
2021/09/08 02:31:53;;;;;;;8.20;5.53;;;;;;;24.49;37.15;101490.97;5013670;28;20129;-77
2021/09/08 02:34:19;;;;;;;7.93;5.55;;;;;;;24.48;36.79;101486.47;5013378;28;20128;-77
2021/09/08 02:36:46;;;;;;;8.40;5.78;;;;;;;24.46;37.18;101494.13;5008689;28;20054;-77
2021/09/08 02:39:12;;;;;;;8.27;5.47;;;;;;;24.44;37.25;101491.53;5012682;28;20054;-77
2021/09/08 02:41:39;;;;;;;8.32;5.78;;;;;;;24.44;37.12;101499.00;5014924;28;20128;-77
2021/09/08 02:44:06;;;;;;;8.60;6.03;;;;;;;24.42;37.48;101492.75;5011968;28;20134;-77
2021/09/08 02:46:32;;;;;;;8.13;5.90;;;;;;;24.39;37.29;101491.19;5012420;28;20050;-77
2021/09/08 02:48:59;;;;;;;6.90;4.97;;;;;;;24.37;37.17;101484.09;5019073;28;20124;-77
2021/09/08 02:51:25;;;;;;;7.57;5.68;;;;;;;24.35;37.07;101477.84;5013761;28;20049;-77
2021/09/08 02:53:52;;;;;;;7.72;5.00;;;;;;;24.33;37.40;101478.00;5011840;28;20136;-77
2021/09/08 02:56:19;;;;;;;7.20;5.25;;;;;;;24.31;37.39;101473.66;5014847;28;20493;-77
2021/09/08 02:58:45;;;;;;;8.48;5.68;;;;;;;24.30;37.27;101475.56;5011378;28;20050;-77
2021/09/08 03:01:12;;;;;;;7.75;5.32;;;;;;;24.30;36.84;101483.03;5010658;28;20076;-77
2021/09/08 03:03:39;;;;;;;7.75;5.18;;;;;;;24.28;36.87;101477.69;5019030;28;20053;-77
2021/09/08 03:06:06;;;;;;;9.13;5.65;;;;;;;24.28;37.02;101474.91;5015444;28;20058;-77
2021/09/08 03:08:33;;;;;;;7.75;5.13;;;;;;;24.27;37.39;101475.94;5021670;28;20058;-77
2021/09/08 03:10:59;;;;;;;7.30;5.25;;;;;;;24.26;37.05;101474.22;5032624;28;20081;-77
2021/09/08 03:13:26;;;;;;;8.65;5.90;;;;;;;24.25;37.09;101475.25;4993959;28;20077;-77
2021/09/08 03:15:52;;;;;;;7.97;5.40;;;;;;;24.23;37.16;101480.97;5014668;28;20054;-77
2021/09/08 03:18:19;;;;;;;7.25;5.10;;;;;;;24.22;36.90;101478.38;5012529;28;20054;-77
2021/09/08 03:20:46;;;;;;;7.38;5.07;;;;;;;24.22;37.29;101478.38;5012446;28;20552;-77
2021/09/08 03:23:13;;;;;;;7.65;5.28;;;;;;;24.20;37.15;101472.13;5011552;28;20123;-77
2021/09/08 03:25:39;;;;;;;8.23;5.35;;;;;;;24.19;37.22;101475.94;5008849;28;20050;-77
2021/09/08 03:28:06;;;;;;;8.07;5.40;;;;;;;24.18;37.41;101476.97;5023082;28;20049;-77
2021/09/08 03:30:33;;;;;;;8.90;6.07;;;;;;;24.17;37.19;101483.56;5013178;28;20054;-77
2021/09/08 03:33:01;;;;;;;8.00;5.65;;;;;;;24.15;37.43;101478.19;5009822;28;20080;-77
2021/09/08 03:35:28;;;;;;;8.00;5.55;;;;;;;24.13;37.70;101480.25;5012911;28;20050;-77
2021/09/08 03:37:54;;;;;;;8.98;5.93;;;;;;;24.10;37.04;101477.00;5015029;28;20070;-77
2021/09/08 03:40:21;;;;;;;7.32;5.25;;;;;;;24.08;37.38;101482.69;5018006;28;20050;-76
2021/09/08 03:42:48;;;;;;;8.70;5.68;;;;;;;24.06;37.11;101470.03;5011897;28;20069;-77
2021/09/08 03:45:14;;;;;;;7.95;5.32;;;;;;;24.05;37.56;101477.50;5007245;28;20082;-77
2021/09/08 03:47:42;;;;;;;7.38;5.00;;;;;;;24.05;36.93;101484.97;5023951;28;20065;-77
2021/09/08 03:50:09;;;;;;;7.57;5.38;;;;;;;24.03;36.96;101475.97;5003714;28;20050;-77
2021/09/08 03:52:36;;;;;;;8.10;5.50;;;;;;;24.03;37.14;101481.50;5010434;28;20543;-76
2021/09/08 03:55:03;;;;;;;7.95;5.65;;;;;;;24.02;36.89;101477.88;5016872;28;20140;-77
2021/09/08 03:57:30;;;;;;;7.35;5.18;;;;;;;24.01;37.33;101472.47;5020052;28;20053;-77
2021/09/08 03:59:56;;;;;;;7.93;5.32;;;;;;;23.99;36.89;101480.09;5014914;28;20057;-76
2021/09/08 04:02:23;;;;;;;7.78;5.43;;;;;;;23.97;37.43;101480.28;5011660;28;20092;-77
2021/09/08 04:04:50;;;;;;;8.07;5.32;;;;;;;23.97;37.34;101477.50;5016708;28;20046;-77
2021/09/08 04:07:16;;;;;;;7.47;5.30;;;;;;;23.96;37.08;101483.25;5014632;28;20559;-77
2021/09/08 04:09:43;;;;;;;7.25;4.88;;;;;;;23.93;37.24;101473.38;5015489;28;20456;-76
2021/09/08 04:12:10;;;;;;;7.43;5.40;;;;;;;23.93;37.08;101483.59;5015197;28;20061;-77
2021/09/08 04:14:36;;;;;;;7.22;5.45;;;;;;;23.91;37.11;101483.75;5013148;28;20116;-77
2021/09/08 04:17:05;;;;;;;8.68;5.40;;;;;;;23.92;37.42;101479.94;5006691;28;20054;-77
2021/09/08 04:19:32;;;;;;;7.80;5.60;;;;;;;23.87;36.99;101477.72;5006867;28;20049;-76
2021/09/08 04:21:59;;;;;;;7.80;5.47;;;;;;;23.87;37.26;101476.84;5009743;28;20080;-77
2021/09/08 04:24:25;;;;;;;9.30;5.68;;;;;;;23.86;36.96;101477.88;5019405;28;20734;-77
2021/09/08 04:26:52;;;;;;;8.55;5.57;;;;;;;23.84;37.21;101468.84;5011509;28;20085;-77
2021/09/08 04:29:18;;;;;;;8.32;5.70;;;;;;;23.83;37.21;101473.53;5011332;28;20086;-77
2021/09/08 04:31:45;;;;;;;9.68;6.25;;;;;;;23.82;37.27;101473.69;5012866;28;20073;-77
2021/09/08 04:34:11;;;;;;;9.27;6.05;;;;;;;23.79;37.84;101466.63;5010467;28;20096;-77
2021/09/08 04:36:38;;;;;;;8.30;5.47;;;;;;;23.76;37.84;101464.19;5007576;28;20741;-77
2021/09/08 04:39:05;;;;;;;8.48;5.88;;;;;;;23.73;37.79;101460.88;5011139;28;20045;-77
2021/09/08 04:41:31;;;;;;;8.85;6.32;;;;;;;23.70;38.11;101461.25;5019736;28;20140;-77
2021/09/08 04:43:58;;;;;;;8.48;5.57;;;;;;;23.65;38.19;101455.31;5015023;28;20509;-77
2021/09/08 04:46:25;;;;;;;8.20;5.80;;;;;;;23.60;38.17;101458.63;5013460;28;20074;-76
2021/09/08 04:48:51;;;;;;;8.70;5.85;;;;;;;23.56;38.01;101462.78;5020295;28;20558;-77
2021/09/08 04:51:18;;;;;;;7.63;5.15;;;;;;;23.53;37.59;101457.59;5021275;28;20049;-76
2021/09/08 04:53:45;;;;;;;8.73;5.70;;;;;;;23.48;38.53;101449.78;5006816;28;20066;-75
2021/09/08 04:56:11;;;;;;;8.55;5.90;;;;;;;23.45;38.42;101455.66;5002069;28;20487;-76
2021/09/08 04:58:38;;;;;;;8.93;5.97;;;;;;;23.43;38.14;101457.72;5010461;28;20069;-76
2021/09/08 05:01:05;;;;;;;8.63;5.70;;;;;;;23.39;38.44;101459.09;5011755;28;20049;-76
2021/09/08 05:03:33;;;;;;;8.65;5.25;;;;;;;23.39;38.43;101458.25;5003594;28;20456;-76
2021/09/08 05:06:00;;;;;;;8.25;5.47;;;;;;;23.34;38.08;101455.97;5010588;28;20092;-76
2021/09/08 05:08:27;;;;;;;9.50;5.72;;;;;;;23.32;38.27;101455.25;5021872;28;20081;-76
2021/09/08 05:10:53;;;;;;;7.75;5.45;;;;;;;23.30;38.21;101450.97;5015383;28;20054;-76
2021/09/08 05:13:23;;;;;;;7.93;5.63;;;;;;;23.33;38.44;101450.59;5016815;28;20046;-76
2021/09/08 05:15:50;;;;;;;9.30;5.85;;;;;;;23.28;38.67;101445.56;5037430;28;20092;-78
2021/09/08 05:18:16;;;;;;;8.77;5.60;;;;;;;23.27;38.19;101449.38;5016102;28;20054;-76
2021/09/08 05:20:44;;;;;;;8.40;5.38;;;;;;;23.29;38.21;101452.00;5030434;28;20126;-77
2021/09/08 05:23:10;;;;;;;8.55;5.68;;;;;;;23.27;38.84;101443.84;5015374;28;20049;-76
2021/09/08 05:25:37;;;;;;;6.93;5.28;;;;;;;23.28;38.45;101444.72;5020639;28;20053;-76
2021/09/08 05:28:04;;;;;;;7.60;5.65;;;;;;;23.26;38.68;101439.34;5015414;28;20050;-76
2021/09/08 05:30:30;;;;;;;9.77;6.05;;;;;;;23.26;38.58;101439.34;5011668;28;20085;-75
2021/09/08 05:32:57;;;;;;;9.15;6.03;;;;;;;23.27;38.26;101442.97;5008806;28;20573;-76
2021/09/08 05:35:24;;;;;;;8.65;5.55;;;;;;;23.25;38.56;101445.91;5020185;28;20091;-75
2021/09/08 05:37:50;;;;;;;9.95;5.78;;;;;;;23.24;38.17;101438.63;5019557;28;20112;-75
2021/09/08 05:40:17;;;;;;;7.35;5.70;;;;;;;23.25;38.96;101440.38;5015116;28;20131;-75
2021/09/08 05:42:43;;;;;;;8.90;5.68;;;;;;;23.24;39.18;101437.75;5003836;28;20050;-76
2021/09/08 05:45:10;;;;;;;8.88;5.43;;;;;;;23.23;38.55;101434.13;5009863;28;20054;-74
2021/09/08 05:47:37;;;;;;;8.65;5.57;;;;;;;23.23;38.69;101436.88;5004252;28;20058;-76
2021/09/08 05:50:04;;;;;;;8.15;5.43;;;;;;;23.24;38.73;101435.00;5013259;28;20751;-75
2021/09/08 05:52:31;;;;;;;7.18;5.07;;;;;;;23.24;38.53;101430.31;5013249;28;20054;-75
2021/09/08 05:54:58;;;;;;;7.93;4.85;;;;;;;23.25;38.49;101439.50;5010251;28;20046;-75
2021/09/08 05:57:25;;;;;;;7.35;5.18;;;;;;;23.25;39.38;101434.81;5010926;28;20053;-75
2021/09/08 05:59:51;;;;;;;7.75;5.40;;;;;;;23.25;38.96;101432.06;5013773;28;20050;-75
2021/09/08 06:02:18;;;;;;;7.32;5.43;;;;;;;23.26;39.27;101424.59;5027053;28;20075;-76
2021/09/08 06:04:46;;;;;;;9.00;6.18;;;;;;;23.27;39.20;101434.66;5020594;28;20081;-76
2021/09/08 06:07:13;;;;;;;7.97;5.43;;;;;;;23.27;38.91;101427.22;5012008;28;20131;-76
2021/09/08 06:09:39;;;;;;;9.38;5.15;;;;;;;23.29;38.89;101430.69;5019083;28;20148;-76
2021/09/08 06:12:06;;;;;;;9.25;5.30;;;;;;;23.31;38.69;101430.50;5024913;28;20412;-76
2021/09/08 06:14:33;;;;;;;9.43;5.38;;;;;;;23.33;38.83;101428.41;5011497;28;20056;-76
2021/09/08 06:16:59;;;;;;;9.35;5.82;;;;;;;23.35;38.87;101434.66;5016740;28;20654;-76
2021/09/08 06:19:26;;;;;;;9.60;5.95;;;;;;;23.37;39.43;101427.94;5019399;28;20089;-76
2021/09/08 06:21:53;;;;;;;8.80;5.78;;;;;;;23.40;39.23;101435.00;5015628;28;20073;-76
2021/09/08 06:24:19;;;;;;;9.38;5.97;;;;;;;23.40;39.64;101427.56;5019684;28;20041;-76
2021/09/08 06:26:46;;;;;;;10.77;6.25;;;;;;;23.41;39.52;101423.75;5014106;28;20456;-75
2021/09/08 06:29:12;;;;;;;8.77;5.47;;;;;;;23.43;39.17;101427.22;5017374;28;20046;-76
2021/09/08 06:31:39;;;;;;;13.50;6.28;;;;;;;23.45;39.44;101425.16;5014959;28;20080;-75
2021/09/08 06:34:06;;;;;;;8.25;5.65;;;;;;;23.46;39.24;101418.59;5011271;28;20449;-76
2021/09/08 06:36:32;;;;;;;8.90;5.72;;;;;;;23.48;39.26;101423.94;5010945;28;20046;-76
2021/09/08 06:38:59;;;;;;;9.52;6.03;;;;;;;23.49;39.39;101423.78;5017186;28;20061;-76
2021/09/08 06:41:26;;;;;;;8.15;5.40;;;;;;;23.52;39.69;101417.03;5018573;28;20054;-76
2021/09/08 06:43:53;;;;;;;8.90;5.88;;;;;;;23.56;39.25;101418.41;5015754;28;20062;-76
2021/09/08 06:46:19;;;;;;;8.02;5.85;;;;;;;23.57;39.33;101414.59;5018540;28;20094;-76
2021/09/08 06:48:46;;;;;;;8.23;6.15;;;;;;;23.60;39.61;101410.63;4997544;28;20145;-76
2021/09/08 06:51:12;;;;;;;8.13;5.55;;;;;;;23.63;39.72;101411.16;5011467;28;20196;-76
2021/09/08 06:53:39;;;;;;;10.35;6.60;;;;;;;23.68;39.74;101410.63;5013416;28;20053;-76
2021/09/08 06:56:06;;;;;;;9.15;6.15;;;;;;;23.75;40.25;101406.13;5030737;28;20057;-76
2021/09/08 06:58:33;;;;;;;9.20;6.10;;;;;;;23.84;40.47;101413.38;5007932;28;20077;-76
2021/09/08 07:01:00;;;;;;;8.57;6.00;;;;;;;23.96;40.72;101402.81;5021795;28;20054;-76
2021/09/08 07:03:27;;;;;;;9.65;6.18;;;;;;;24.10;41.13;101400.16;5011576;28;20058;-76
2021/09/08 07:05:54;;;;;;;8.55;6.43;;;;;;;24.26;41.29;101397.38;5022038;28;20551;-76
2021/09/08 07:08:20;;;;;;;9.23;6.72;;;;;;;24.44;41.13;101402.69;5014599;28;20149;-76
2021/09/08 07:10:51;;;;;;;8.60;6.43;;;;;;;24.64;41.52;101408.66;5025935;28;20042;-76
2021/09/08 07:13:17;;;;;;;8.02;6.13;;;;;;;24.85;41.81;101405.28;5013784;28;20547;-76
2021/09/08 07:15:44;;;;;;;9.73;6.22;;;;;;;25.05;41.54;101401.00;5010450;28;20050;-76
2021/09/08 07:18:11;;;;;;;9.10;6.55;;;;;;;25.25;41.10;101401.41;5014446;28;20046;-78
2021/09/08 07:20:40;;;;;;;8.35;6.15;;;;;;;25.45;41.08;101391.50;5005333;28;20069;-73
2021/09/08 07:23:08;;;;;;;9.32;6.53;;;;;;;25.68;40.91;101405.44;5005757;28;20058;-77
2021/09/08 07:25:35;;;;;;;9.00;6.72;;;;;;;25.86;40.34;101394.81;5030121;28;20538;-77
2021/09/08 07:28:03;;;;;;;10.55;6.50;;;;;;;26.05;40.44;101394.28;5015838;28;20082;-74
2021/09/08 07:30:29;;;;;;;9.63;6.65;;;;;;;26.23;40.28;101390.25;5018143;28;20053;-75
2021/09/08 07:32:56;;;;;;;9.68;6.22;;;;;;;26.40;39.86;101394.59;5026100;28;20054;-77
2021/09/08 07:35:22;;;;;;;9.88;6.82;;;;;;;26.54;39.17;101396.50;5005162;28;20062;-78
2021/09/08 07:37:49;;;;;;;8.88;6.38;;;;;;;26.68;38.64;101392.00;5009691;28;20078;-77
2021/09/08 07:40:17;;;;;;;9.52;6.55;;;;;;;26.79;38.48;101389.56;5025472;28;20049;-77
2021/09/08 07:42:44;;;;;;;10.38;6.30;;;;;;;26.89;38.25;101392.91;5010605;28;20058;-76
2021/09/08 07:45:10;;;;;;;9.18;6.88;;;;;;;26.98;37.91;101396.47;5013437;28;20042;-76
2021/09/08 07:47:37;;;;;;;9.93;6.70;;;;;;;27.06;37.25;101392.69;5025617;28;20057;-78
2021/09/08 07:50:05;;;;;;;8.30;6.28;;;;;;;27.12;37.06;101394.69;5010467;28;20089;-76
2021/09/08 07:52:31;;;;;;;9.02;6.68;;;;;;;27.15;36.97;101389.59;5014018;28;20116;-77
2021/09/08 07:54:58;;;;;;;9.52;6.43;;;;;;;27.17;36.75;101392.19;5010178;28;20108;-78
2021/09/08 07:57:24;;;;;;;9.02;6.72;;;;;;;27.18;36.70;101386.38;5006593;28;20108;-78
2021/09/08 07:59:51;;;;;;;9.18;6.63;;;;;;;27.17;36.33;101393.06;5030778;28;20107;-75
2021/09/08 08:02:18;;;;;;;9.02;6.43;;;;;;;27.18;36.58;101391.09;5016518;28;20073;-77
2021/09/08 08:04:45;;;;;;;8.18;6.13;;;;;;;27.16;36.06;101391.31;5015369;28;20038;-73
2021/09/08 08:07:11;;;;;;;8.52;6.03;;;;;;;27.15;36.23;101388.72;5012545;28;20065;-77
2021/09/08 08:09:44;;;;;;;7.75;5.95;;;;;;;27.12;36.53;101384.41;5019408;28;20107;-72
2021/09/08 08:12:10;;;;;;;8.02;5.95;;;;;;;27.10;36.44;101385.66;5027221;28;20054;-72
2021/09/08 08:14:37;;;;;;;9.80;6.85;;;;;;;27.10;36.43;101394.00;5016598;28;20049;-75
2021/09/08 08:17:05;;;;;;;8.70;6.35;;;;;;;27.10;36.40;101386.50;5008146;28;20112;-73
2021/09/08 08:19:33;;;;;;;8.50;6.13;;;;;;;27.10;36.33;101377.28;5006186;28;20120;-72
2021/09/08 08:22:00;;;;;;;8.80;6.00;;;;;;;27.10;36.50;101383.72;5040733;28;20128;-72
2021/09/08 08:24:26;;;;;;;8.82;6.28;;;;;;;27.10;36.34;101378.16;5018622;28;20054;-71
2021/09/08 08:26:53;;;;;;;10.15;6.28;;;;;;;27.11;36.46;101377.09;5010082;28;20046;-72
2021/09/08 08:29:20;;;;;;;8.82;5.90;;;;;;;27.13;36.70;101376.91;5020663;28;20115;-72
2021/09/08 08:31:47;;;;;;;8.23;5.85;;;;;;;27.15;36.56;101375.66;5017758;28;20050;-73
2021/09/08 08:34:14;;;;;;;7.70;5.95;;;;;;;27.16;36.87;101379.31;5008587;28;20476;-72
2021/09/08 08:36:41;;;;;;;7.57;5.82;;;;;;;27.18;36.85;101380.81;5009840;28;20086;-71
2021/09/08 08:39:08;;;;;;;7.32;5.60;;;;;;;27.22;36.51;101381.28;5026068;28;20234;-71
2021/09/08 08:41:34;;;;;;;7.05;5.28;;;;;;;27.25;36.76;101380.91;5020896;28;20046;-71
2021/09/08 08:44:03;;;;;;;9.40;6.32;;;;;;;27.32;36.70;101383.75;5013721;28;20488;-75
2021/09/08 08:46:30;;;;;;;9.73;6.35;;;;;;;27.34;36.68;101381.63;5011333;28;20077;-75
2021/09/08 08:48:58;;;;;;;8.43;6.15;;;;;;;27.38;36.94;101381.03;5009195;28;20085;-73
2021/09/08 08:51:25;;;;;;;7.35;5.55;;;;;;;27.42;37.04;101376.78;5022571;28;20137;-74
2021/09/08 08:53:52;;;;;;;8.02;6.00;;;;;;;27.46;36.59;101372.53;5010110;28;20140;-73
2021/09/08 08:56:20;;;;;;;8.30;6.05;;;;;;;27.51;36.46;101375.56;5008915;28;20128;-74
2021/09/08 08:58:47;;;;;;;9.20;6.63;;;;;;;27.55;36.41;101363.00;5019660;28;20631;-76
2021/09/08 09:01:17;;;;;;;9.60;6.00;;;;;;;27.62;36.55;101358.31;5020477;28;20045;-78
2021/09/08 09:03:59;;;;;;;8.98;6.25;;;;;;;27.69;36.67;101361.16;5019496;28;20054;-76
2021/09/08 09:10:14;;;;;;;7.25;5.18;;;;;;;27.79;37.24;101350.50;5016442;28;20741;-75
2021/09/08 09:12:44;;;;;;;10.32;5.60;;;;;;;27.89;36.71;101351.03;5019483;28;20057;-76
2021/09/08 09:15:16;;;;;;;8.95;6.32;;;;;;;28.01;36.45;101346.59;5019796;28;20448;-75
2021/09/08 09:17:45;;;;;;;8.02;6.60;;;;;;;28.05;36.45;101348.97;5012922;28;20697;-76
2021/09/08 09:20:25;;;;;;;8.07;6.25;;;;;;;28.18;36.04;101346.28;5017544;28;20054;-74
2021/09/08 09:23:12;;;;;;;7.97;6.28;;;;;;;28.25;35.92;101347.22;5006800;28;20088;-73
2021/09/08 09:25:39;;;;;;;7.90;6.28;;;;;;;28.32;36.20;101339.72;5010862;28;20074;-79
2021/09/08 09:28:07;;;;;;;7.60;5.90;;;;;;;28.43;35.93;101341.91;5012225;28;20058;-79
2021/09/08 09:30:38;;;;;;;9.27;6.30;;;;;;;28.53;35.93;101336.81;5008433;28;20116;-79
2021/09/08 09:33:31;;;;;;;7.70;6.00;;;;;;;28.67;35.66;101337.72;5003372;28;20059;-79
2021/09/08 09:36:23;;;;;;;6.97;5.68;;;;;;;28.77;35.39;101329.84;5010824;28;20050;-78
2021/09/08 09:38:53;;;;;;;7.97;5.70;;;;;;;28.85;35.97;101335.25;5007479;28;20062;-79
2021/09/08 09:41:31;;;;;;;8.30;6.15;;;;;;;29.01;34.86;101326.47;5010275;28;20041;-79
2021/09/08 09:44:08;;;;;;;8.48;5.70;;;;;;;29.13;35.18;101318.31;5021619;28;20073;-77
2021/09/08 09:46:39;;;;;;;8.48;6.20;;;;;;;29.25;34.72;101329.72;5012886;28;20077;-79
2021/09/08 09:49:06;;;;;;;7.63;6.00;;;;;;;29.33;34.93;101330.38;5013643;28;20066;-78
2021/09/08 09:51:32;;;;;;;8.02;6.60;;;;;;;29.44;34.58;101326.13;5009312;28;20081;-79
2021/09/08 09:54:00;;;;;;;6.72;5.47;;;;;;;29.57;34.68;101322.47;5021645;28;20088;-79
2021/09/08 09:56:26;;;;;;;8.20;6.13;;;;;;;29.67;34.71;101312.53;5014085;28;20050;-79
2021/09/08 09:58:53;;;;;;;8.40;6.30;;;;;;;29.79;34.28;101316.41;5021686;28;20099;-79
2021/09/08 10:01:20;;;;;;;7.85;6.18;;;;;;;29.92;34.02;101317.47;5024926;28;20057;-79
2021/09/08 10:03:47;;;;;;;8.15;6.45;;;;;;;30.02;33.82;101318.78;5030197;28;20056;-80
2021/09/08 10:06:15;;;;;;;8.85;6.50;;;;;;;30.12;33.76;101310.78;5013459;28;20125;-79
2021/09/08 10:08:53;;;;;;;8.05;6.20;;;;;;;30.25;32.87;101307.94;5009903;28;20161;-79
2021/09/08 10:11:24;;;;;;;8.40;6.75;;;;;;;30.33;32.71;101298.41;5018132;28;20095;-80
2021/09/08 10:13:59;;;;;;;9.07;6.72;;;;;;;30.41;32.57;101292.56;5029997;28;20432;-79
2021/09/08 10:16:27;;;;;;;8.43;6.40;;;;;;;30.49;33.24;101297.91;5026476;28;20049;-79
2021/09/08 10:18:54;;;;;;;8.70;6.57;;;;;;;30.58;33.33;101293.81;5031518;28;20065;-79
2021/09/08 10:21:21;;;;;;;8.88;5.72;;;;;;;30.68;32.98;101296.13;5007319;28;20141;-79
2021/09/08 10:23:58;;;;;;;8.02;6.45;;;;;;;30.82;31.82;101288.50;5011362;28;21719;-80
2021/09/08 10:26:30;;;;;;;8.10;6.57;;;;;;;30.88;32.38;101285.69;5014102;28;20034;-79
2021/09/08 10:29:06;;;;;;;8.07;6.03;;;;;;;30.98;31.99;101280.41;5015735;28;20061;-79
2021/09/08 10:31:48;;;;;;;8.73;6.65;;;;;;;31.10;31.15;101269.38;5017347;28;20045;-80
2021/09/08 10:34:16;;;;;;;8.63;6.78;;;;;;;31.13;31.72;101257.72;5015792;28;20530;-79
2021/09/08 10:36:44;;;;;;;8.93;6.35;;;;;;;31.25;31.49;101257.81;5028453;28;20045;-80
2021/09/08 10:39:15;;;;;;;7.90;6.57;;;;;;;31.30;31.36;101263.56;5029561;28;20088;-80
2021/09/08 10:41:46;;;;;;;8.38;6.72;;;;;;;31.35;31.12;101256.22;5003388;28;20046;-80
2021/09/08 10:44:14;;;;;;;8.10;6.68;;;;;;;31.45;30.89;101254.84;5024603;28;20099;-79
2021/09/08 10:46:51;;;;;;;8.50;6.88;;;;;;;31.54;29.83;101245.91;5031061;28;20049;-80
2021/09/08 10:49:36;;;;;;;8.25;6.75;;;;;;;31.58;30.11;101251.91;5030068;28;20061;-80
2021/09/08 10:52:04;;;;;;;8.07;6.28;;;;;;;31.63;30.98;101240.84;5012389;28;20489;-80
2021/09/08 10:54:31;;;;;;;8.18;6.97;;;;;;;31.69;30.76;101237.13;5027469;28;20123;-80
2021/09/08 10:56:58;;;;;;;8.38;6.45;;;;;;;31.75;30.04;101230.59;5030540;28;20041;-80
2021/09/08 10:59:25;;;;;;;8.00;6.53;;;;;;;31.84;30.31;101234.81;5033997;28;20061;-79
2021/09/08 11:01:52;;;;;;;8.70;6.10;;;;;;;31.91;30.36;101234.72;5033087;28;20049;-80
2021/09/08 11:04:20;;;;;;;8.27;6.75;;;;;;;31.97;29.64;101234.63;5015222;28;20537;-79
2021/09/08 11:06:48;;;;;;;8.75;6.38;;;;;;;32.04;29.48;101229.78;5011887;28;20045;-80
2021/09/08 11:09:17;;;;;;;9.23;6.55;;;;;;;32.12;29.31;101220.22;5021930;28;20053;-80
2021/09/08 11:11:56;;;;;;;8.57;6.90;;;;;;;32.18;28.98;101216.50;5011041;28;20096;-80
2021/09/08 11:14:45;;;;;;;6.93;5.97;;;;;;;32.22;29.43;101222.47;5018475;28;20103;-80
2021/09/08 11:17:22;;;;;;;8.20;6.18;;;;;;;32.30;29.13;101210.91;5010472;28;20561;-81
2021/09/08 11:19:54;;;;;;;7.75;6.35;;;;;;;32.35;28.73;101223.19;5009650;28;20053;-80
2021/09/08 11:22:21;;;;;;;8.35;6.55;;;;;;;32.38;28.96;101219.03;5010419;28;20085;-80
2021/09/08 11:25:20;;;;;;;7.50;6.07;;;;;;;32.39;28.81;101218.78;5023258;28;20108;-81
2021/09/08 11:27:51;;;;;;;6.47;5.32;;;;;;;32.56;28.52;101221.78;4965530;28;20115;-81
2021/09/08 11:30:18;;;;;;;8.75;6.45;;;;;;;32.58;28.42;101216.81;5004235;28;20053;-80
2021/09/08 11:32:55;;;;;;;7.28;5.88;;;;;;;32.68;28.43;101217.09;5011837;28;20057;-80